Main page
METAR-TAF:

METAR-TAF

Airports :

Milan, Italy

Malpensa Airport

latitude: 45-37N, longitude: 008-44E, elevation: 234 m

Current weather observation

The report was made 12 minutes ago, at 21:20 UTC
Wind 5 kt from the North/Northeast
Temperature -4°C
Humidity 86%
Pressure 1029 hPa
Visibility 10 km or more
no clouds below 1500 m and no cumulonimbus

METAR: LIMC 212120Z 02005KT CAVOK M04/M06 Q1029 NOSIG

Time: 22:32 (21:32 UTC)

Forecast

The report was made 4 hours and 32 minutes ago, at 17:00 UTC
Forecast valid from 21 at 18 UTC to 22 at 24 UTC
Wind 5 kt from variable directions
Visibility 10 km or more
no clouds below 1500 m and no cumulonimbus
Temporary
from 22 at 02 UTC to 22 at 07 UTC
Visibility: 3000 m
patches of fog

TAF: LIMC 211700Z 2118/2224 VRB05KT CAVOK TEMPO 2202/2207 3000 BCFG

Weather observations and forecasts of more than 4000 airports (METAR and TAF reports).

The available stations are represented by yellow and red dots on the map.

Hover mouse over dot to see the name of the station.

Then click to see weather observations and forecasts.

To change the map : click on the green buttons with a black cross to zoom in, on the green button with a dash to zoom out, or on the green arrows for adjacent maps.


METAR-TAF: